sensor_id;sensor_type;location;lat;lon;timestamp;pressure;altitude;pressure_sealevel;temperature;humidity
17254;BME280;32542;52.832;13.816;2023-02-19T00:01:06;101325.81;;;22.03;47.64
17254;BME280;32542;52.832;13.816;2023-02-19T00:04:13;101323.19;;;22.02;47.85
17254;BME280;32542;52.832;13.816;2023-02-19T00:07:16;101324.06;;;22.02;47.68
17254;BME280;32542;52.832;13.816;2023-02-19T00:10:19;101327.69;;;22.01;47.57
17254;BME280;32542;52.832;13.816;2023-02-19T00:13:22;101316.16;;;22.01;47.61
17254;BME280;32542;52.832;13.816;2023-02-19T00:16:26;101322.34;;;22.01;47.58
17254;BME280;32542;52.832;13.816;2023-02-19T00:19:31;101315.28;;;22.00;47.68
17254;BME280;32542;52.832;13.816;2023-02-19T00:22:34;101314.34;;;22.01;47.61
17254;BME280;32542;52.832;13.816;2023-02-19T00:25:37;101311.69;;;22.01;47.53
17254;BME280;32542;52.832;13.816;2023-02-19T00:28:40;101309.03;;;22.01;47.52
17254;BME280;32542;52.832;13.816;2023-02-19T00:31:43;101314.34;;;22.01;47.66
17254;BME280;32542;52.832;13.816;2023-02-19T00:34:48;101314.34;;;22.01;47.60
17254;BME280;32542;52.832;13.816;2023-02-19T00:37:51;101322.34;;;22.01;47.40
17254;BME280;32542;52.832;13.816;2023-02-19T00:40:54;101311.69;;;22.01;47.43
17254;BME280;32542;52.832;13.816;2023-02-19T00:43:59;101312.59;;;22.00;47.17
17254;BME280;32542;52.832;13.816;2023-02-19T00:47:02;101325.94;;;22.00;47.34
17254;BME280;32542;52.832;13.816;2023-02-19T00:50:07;101325.94;;;22.00;47.28
17254;BME280;32542;52.832;13.816;2023-02-19T00:53:10;101315.28;;;22.00;47.25
17254;BME280;32542;52.832;13.816;2023-02-19T00:56:13;101318.84;;;21.99;47.37
17254;BME280;32542;52.832;13.816;2023-02-19T00:59:16;101311.81;;;21.98;47.28
17254;BME280;32542;52.832;13.816;2023-02-19T01:02:19;101313.53;;;21.99;47.22
17254;BME280;32542;52.832;13.816;2023-02-19T01:05:25;101307.34;;;21.99;47.34
17254;BME280;32542;52.832;13.816;2023-02-19T01:08:28;101301.13;;;21.98;47.24
17254;BME280;32542;52.832;13.816;2023-02-19T01:11:34;101310.00;;;21.99;47.29
17254;BME280;32542;52.832;13.816;2023-02-19T01:14:37;101303.81;;;21.98;47.35
17254;BME280;32542;52.832;13.816;2023-02-19T01:17:41;101295.81;;;21.98;47.26
17254;BME280;32542;52.832;13.816;2023-02-19T01:20:45;101303.72;;;22.00;47.28
17254;BME280;32542;52.832;13.816;2023-02-19T01:23:49;101301.13;;;21.98;47.36
17254;BME280;32542;52.832;13.816;2023-02-19T01:26:52;101294.94;;;21.98;47.10
17254;BME280;32542;52.832;13.816;2023-02-19T01:29:55;101282.47;;;21.98;47.22
17254;BME280;32542;52.832;13.816;2023-02-19T01:32:58;101271.88;;;21.97;47.08
17254;BME280;32542;52.832;13.816;2023-02-19T01:36:04;101256.72;;;21.97;47.24
17254;BME280;32542;52.832;13.816;2023-02-19T01:39:09;101264.72;;;21.97;47.20
17254;BME280;32542;52.832;13.816;2023-02-19T01:42:13;101271.88;;;21.97;47.20
17254;BME280;32542;52.832;13.816;2023-02-19T01:45:24;101262.06;;;21.97;47.21
17254;BME280;32542;52.832;13.816;2023-02-19T01:48:29;101254.13;;;21.96;47.14
17254;BME280;32542;52.832;13.816;2023-02-19T01:51:38;101255.00;;;21.96;47.27
17254;BME280;32542;52.832;13.816;2023-02-19T01:54:44;101260.34;;;21.96;47.23
17254;BME280;32542;52.832;13.816;2023-02-19T01:57:52;101262.06;;;21.97;47.40
17254;BME280;32542;52.832;13.816;2023-02-19T02:00:56;101264.72;;;21.97;47.25
17254;BME280;32542;52.832;13.816;2023-02-19T02:04:00;101264.72;;;21.97;47.42
17254;BME280;32542;52.832;13.816;2023-02-19T02:07:05;101254.06;;;21.97;47.21
17254;BME280;32542;52.832;13.816;2023-02-19T02:10:28;101251.38;;;21.97;47.21
17254;BME280;32542;52.832;13.816;2023-02-19T02:13:32;101255.00;;;21.96;47.31
17254;BME280;32542;52.832;13.816;2023-02-19T02:16:42;101241.69;;;21.96;47.13
17254;BME280;32542;52.832;13.816;2023-02-19T02:20:02;101223.00;;;21.96;47.25
17254;BME280;32542;52.832;13.816;2023-02-19T02:23:15;101211.47;;;21.96;47.21
17254;BME280;32542;52.832;13.816;2023-02-19T02:26:31;101218.56;;;21.97;47.15
17254;BME280;32542;52.832;13.816;2023-02-19T02:30:00;101217.69;;;21.96;47.21
17254;BME280;32542;52.832;13.816;2023-02-19T02:33:16;101215.00;;;21.96;47.28
17254;BME280;32542;52.832;13.816;2023-02-19T02:36:24;101223.00;;;21.96;47.32
17254;BME280;32542;52.832;13.816;2023-02-19T02:39:29;101214.06;;;21.97;47.27
17254;BME280;32542;52.832;13.816;2023-02-19T02:42:37;101211.38;;;21.97;47.22
17254;BME280;32542;52.832;13.816;2023-02-19T02:45:46;101224.72;;;21.97;47.24
17254;BME280;32542;52.832;13.816;2023-02-19T02:48:57;101219.47;;;21.96;47.37
17254;BME280;32542;52.832;13.816;2023-02-19T02:52:02;101215.00;;;21.96;47.23
17254;BME280;32542;52.832;13.816;2023-02-19T02:55:29;101215.00;;;21.96;47.21
17254;BME280;32542;52.832;13.816;2023-02-19T02:58:32;101216.72;;;21.97;47.21
17254;BME280;32542;52.832;13.816;2023-02-19T03:01:41;101219.47;;;21.96;47.26
17254;BME280;32542;52.832;13.816;2023-02-19T03:05:06;101236.34;;;21.96;47.16
17254;BME280;32542;52.832;13.816;2023-02-19T03:08:29;101239.00;;;21.96;47.24
17254;BME280;32542;52.832;13.816;2023-02-19T03:11:34;101239.94;;;21.95;47.26
17254;BME280;32542;52.832;13.816;2023-02-19T03:15:01;101239.00;;;21.96;47.24
17254;BME280;32542;52.832;13.816;2023-02-19T03:18:30;101236.34;;;21.96;47.41
17254;BME280;32542;52.832;13.816;2023-02-19T03:21:56;101248.81;;;21.96;47.31
17254;BME280;32542;52.832;13.816;2023-02-19T03:25:04;101255.88;;;21.97;47.27
17254;BME280;32542;52.832;13.816;2023-02-19T03:28:29;101252.34;;;21.96;47.22
17254;BME280;32542;52.832;13.816;2023-02-19T03:31:48;101257.69;;;21.96;47.18
17254;BME280;32542;52.832;13.816;2023-02-19T03:34:59;101254.13;;;21.96;47.21
17254;BME280;32542;52.832;13.816;2023-02-19T03:38:08;101259.47;;;21.96;47.10
17254;BME280;32542;52.832;13.816;2023-02-19T03:41:19;101264.81;;;21.96;47.17
17254;BME280;32542;52.832;13.816;2023-02-19T03:44:33;101263.94;;;21.95;47.25
17254;BME280;32542;52.832;13.816;2023-02-19T03:47:45;101266.53;;;21.97;46.93
17254;BME280;32542;52.832;13.816;2023-02-19T03:51:03;101269.22;;;21.97;47.18
17254;BME280;32542;52.832;13.816;2023-02-19T03:54:16;101265.69;;;21.96;47.22
17254;BME280;32542;52.832;13.816;2023-02-19T03:57:27;101263.94;;;21.95;47.15
17254;BME280;32542;52.832;13.816;2023-02-19T04:00:37;101265.69;;;21.96;47.20
17254;BME280;32542;52.832;13.816;2023-02-19T04:03:45;101257.69;;;21.96;47.29
17254;BME280;32542;52.832;13.816;2023-02-19T04:06:54;101262.06;;;21.97;47.23
17254;BME280;32542;52.832;13.816;2023-02-19T04:10:01;101266.53;;;21.97;47.19
17254;BME280;32542;52.832;13.816;2023-02-19T04:13:08;101262.06;;;21.97;47.19
17254;BME280;32542;52.832;13.816;2023-02-19T04:16:16;101263.88;;;21.97;47.06
17254;BME280;32542;52.832;13.816;2023-02-19T04:19:23;101262.06;;;21.97;47.15
17254;BME280;32542;52.832;13.816;2023-02-19T04:22:29;101260.34;;;21.96;47.21
17254;BME280;32542;52.832;13.816;2023-02-19T04:25:33;101262.06;;;21.97;47.20
17254;BME280;32542;52.832;13.816;2023-02-19T04:28:38;101281.69;;;21.96;47.16
17254;BME280;32542;52.832;13.816;2023-02-19T04:31:41;101281.69;;;21.96;47.15
17254;BME280;32542;52.832;13.816;2023-02-19T04:34:44;101279.94;;;21.95;47.12
17254;BME280;32542;52.832;13.816;2023-02-19T04:37:48;101277.22;;;21.97;47.09
17254;BME280;32542;52.832;13.816;2023-02-19T04:40:51;101279.88;;;21.97;47.15
17254;BME280;32542;52.832;13.816;2023-02-19T04:43:54;101277.22;;;21.97;47.13
17254;BME280;32542;52.832;13.816;2023-02-19T04:46:57;101267.38;;;21.97;47.24
17254;BME280;32542;52.832;13.816;2023-02-19T04:50:00;101265.69;;;21.96;47.15
17254;BME280;32542;52.832;13.816;2023-02-19T04:53:04;101273.69;;;21.96;47.07
17254;BME280;32542;52.832;13.816;2023-02-19T04:56:08;101269.25;;;21.95;47.19
17254;BME280;32542;52.832;13.816;2023-02-19T04:59:11;101274.59;;;21.95;47.08
17254;BME280;32542;52.832;13.816;2023-02-19T05:02:14;101269.25;;;21.95;47.22
17254;BME280;32542;52.832;13.816;2023-02-19T05:05:17;101270.22;;;21.94;47.05
17254;BME280;32542;52.832;13.816;2023-02-19T05:08:21;101270.22;;;21.94;47.11
17254;BME280;32542;52.832;13.816;2023-02-19T05:11:24;101266.66;;;21.94;46.98
17254;BME280;32542;52.832;13.816;2023-02-19T05:14:27;101268.47;;;21.93;47.03
17254;BME280;32542;52.832;13.816;2023-02-19T05:17:31;101269.41;;;21.92;47.05
17254;BME280;32542;52.832;13.816;2023-02-19T05:20:35;101260.47;;;21.93;47.06
17254;BME280;32542;52.832;13.816;2023-02-19T05:23:39;101258.69;;;21.94;47.17
17254;BME280;32542;52.832;13.816;2023-02-19T05:26:42;101249.78;;;21.93;47.22
17254;BME280;32542;52.832;13.816;2023-02-19T05:29:46;101250.66;;;21.94;47.26
17254;BME280;32542;52.832;13.816;2023-02-19T05:32:49;101244.47;;;21.93;47.17
17254;BME280;32542;52.832;13.816;2023-02-19T05:35:53;101241.81;;;21.93;47.08
17254;BME280;32542;52.832;13.816;2023-02-19T05:38:58;101249.78;;;21.93;47.20
17254;BME280;32542;52.832;13.816;2023-02-19T05:42:01;101244.47;;;21.93;47.08
17254;BME280;32542;52.832;13.816;2023-02-19T05:45:05;101237.41;;;21.92;47.04
17254;BME280;32542;52.832;13.816;2023-02-19T05:48:09;101239.13;;;21.93;47.06
17254;BME280;32542;52.832;13.816;2023-02-19T05:51:15;101248.09;;;21.92;46.99
17254;BME280;32542;52.832;13.816;2023-02-19T05:54:20;101245.41;;;21.92;47.13
17254;BME280;32542;52.832;13.816;2023-02-19T05:57:22;101256.16;;;21.91;47.07
17254;BME280;32542;52.832;13.816;2023-02-19T06:00:26;101257.88;;;21.92;47.00
17254;BME280;32542;52.832;13.816;2023-02-19T06:03:28;101262.34;;;21.91;47.14
17254;BME280;32542;52.832;13.816;2023-02-19T06:06:31;101269.41;;;21.92;47.17
17254;BME280;32542;52.832;13.816;2023-02-19T06:09:36;101271.22;;;21.92;47.19
17254;BME280;32542;52.832;13.816;2023-02-19T06:12:38;101278.28;;;21.93;47.21
17254;BME280;32542;52.832;13.816;2023-02-19T06:15:41;101280.09;;;21.92;47.18
17254;BME280;32542;52.832;13.816;2023-02-19T06:18:44;101280.09;;;21.92;47.04
17254;BME280;32542;52.832;13.816;2023-02-19T06:21:49;101286.28;;;21.93;47.04
17254;BME280;32542;52.832;13.816;2023-02-19T06:24:53;101291.63;;;21.93;47.11
17254;BME280;32542;52.832;13.816;2023-02-19T06:27:56;101294.34;;;21.91;47.12
17254;BME280;32542;52.832;13.816;2023-02-19T06:30:59;101305.00;;;21.91;47.17
17254;BME280;32542;52.832;13.816;2023-02-19T06:34:03;101316.53;;;21.92;47.06
17254;BME280;32542;52.832;13.816;2023-02-19T06:37:06;101313.06;;;21.90;47.07
17254;BME280;32542;52.832;13.816;2023-02-19T06:40:10;101314.88;;;21.89;47.15
17254;BME280;32542;52.832;13.816;2023-02-19T06:43:13;101320.19;;;21.89;47.06
17254;BME280;32542;52.832;13.816;2023-02-19T06:46:16;101322.06;;;21.87;47.17
17254;BME280;32542;52.832;13.816;2023-02-19T06:49:19;101330.94;;;21.88;47.25
17254;BME280;32542;52.832;13.816;2023-02-19T06:52:23;101334.47;;;21.88;47.28
17254;BME280;32542;52.832;13.816;2023-02-19T06:55:27;101343.41;;;21.87;47.26
17254;BME280;32542;52.832;13.816;2023-02-19T06:58:31;101348.81;;;21.86;47.12
17254;BME280;32542;52.832;13.816;2023-02-19T07:01:35;101351.56;;;21.84;47.26
17254;BME280;32542;52.832;13.816;2023-02-19T07:04:38;101364.09;;;21.82;46.88
17254;BME280;32542;52.832;13.816;2023-02-19T07:07:44;101362.31;;;21.81;47.00
17254;BME280;32542;52.832;13.816;2023-02-19T07:10:54;101371.28;;;21.78;46.93
17254;BME280;32542;52.832;13.816;2023-02-19T07:13:58;101376.69;;;21.77;47.03
17254;BME280;32542;52.832;13.816;2023-02-19T07:17:02;101378.56;;;21.75;47.05
17254;BME280;32542;52.832;13.816;2023-02-19T07:20:05;101386.56;;;21.75;47.21
17254;BME280;32542;52.832;13.816;2023-02-19T07:23:08;101389.31;;;21.73;47.15
17254;BME280;32542;52.832;13.816;2023-02-19T07:26:14;101396.41;;;21.73;47.05
17254;BME280;32542;52.832;13.816;2023-02-19T07:29:17;101400.00;;;21.72;47.09
17254;BME280;32542;52.832;13.816;2023-02-19T07:32:20;101403.47;;;21.74;47.21
17254;BME280;32542;52.832;13.816;2023-02-19T07:35:23;101400.81;;;21.74;47.20
17254;BME280;32542;52.832;13.816;2023-02-19T07:38:26;101407.97;;;21.73;47.15
17254;BME280;32542;52.832;13.816;2023-02-19T07:41:31;101413.22;;;21.75;47.16
17254;BME280;32542;52.832;13.816;2023-02-19T07:44:34;101408.81;;;21.74;47.13
17254;BME280;32542;52.832;13.816;2023-02-19T07:47:37;101415.00;;;21.74;47.07
17254;BME280;32542;52.832;13.816;2023-02-19T07:50:40;101416.78;;;21.74;47.13
17254;BME280;32542;52.832;13.816;2023-02-19T07:53:44;101422.13;;;21.74;47.08
17254;BME280;32542;52.832;13.816;2023-02-19T07:56:48;101438.13;;;21.74;47.06
17254;BME280;32542;52.832;13.816;2023-02-19T07:59:51;101439.88;;;21.75;47.18
17254;BME280;32542;52.832;13.816;2023-02-19T08:02:54;101446.13;;;21.74;47.11
17254;BME280;32542;52.832;13.816;2023-02-19T08:06:04;101458.53;;;21.75;47.15
17254;BME280;32542;52.832;13.816;2023-02-19T08:09:08;101463.81;;;21.76;47.14
17254;BME280;32542;52.832;13.816;2023-02-19T08:12:12;101466.47;;;21.76;47.06
17254;BME280;32542;52.832;13.816;2023-02-19T08:15:33;101478.81;;;21.79;47.04
17254;BME280;32542;52.832;13.816;2023-02-19T08:18:36;101493.94;;;21.78;46.97
17254;BME280;32542;52.832;13.816;2023-02-19T08:21:38;101501.06;;;21.78;47.01
17254;BME280;32542;52.832;13.816;2023-02-19T08:24:41;101511.69;;;21.80;46.94
17254;BME280;32542;52.832;13.816;2023-02-19T08:27:46;101513.47;;;21.79;46.99
17254;BME280;32542;52.832;13.816;2023-02-19T08:30:50;101526.78;;;21.79;47.02
17254;BME280;32542;52.832;13.816;2023-02-19T08:33:53;101526.78;;;21.79;47.08
17254;BME280;32542;52.832;13.816;2023-02-19T08:36:56;101545.47;;;21.79;46.98
17254;BME280;32542;52.832;13.816;2023-02-19T08:39:59;101542.81;;;21.79;46.92
17254;BME280;32542;52.832;13.816;2023-02-19T08:43:05;101546.38;;;21.78;46.93
17254;BME280;32542;52.832;13.816;2023-02-19T08:46:09;101557.03;;;21.78;47.16
17254;BME280;32542;52.832;13.816;2023-02-19T08:49:12;101549.03;;;21.78;46.98
17254;BME280;32542;52.832;13.816;2023-02-19T08:52:17;101557.03;;;21.78;46.96
17254;BME280;32542;52.832;13.816;2023-02-19T08:55:20;101564.19;;;21.77;47.01
17254;BME280;32542;52.832;13.816;2023-02-19T08:58:24;101568.66;;;21.77;46.96
17254;BME280;32542;52.832;13.816;2023-02-19T09:01:27;101568.66;;;21.77;47.00
17254;BME280;32542;52.832;13.816;2023-02-19T09:04:30;101561.56;;;21.76;46.97
17254;BME280;32542;52.832;13.816;2023-02-19T09:07:33;101566.91;;;21.76;47.03
17254;BME280;32542;52.832;13.816;2023-02-19T09:10:36;101574.91;;;21.76;47.15
17254;BME280;32542;52.832;13.816;2023-02-19T09:13:41;101579.38;;;21.75;47.20
17254;BME280;32542;52.832;13.816;2023-02-19T09:16:44;101582.06;;;21.75;47.22
17254;BME280;32542;52.832;13.816;2023-02-19T09:19:47;101583.84;;;21.75;47.26
17254;BME280;32542;52.832;13.816;2023-02-19T09:22:55;101590.09;;;21.74;47.38
17254;BME280;32542;52.832;13.816;2023-02-19T09:25:59;101591.03;;;21.73;47.28
17254;BME280;32542;52.832;13.816;2023-02-19T09:29:05;101597.28;;;21.72;47.27
17254;BME280;32542;52.832;13.816;2023-02-19T09:32:08;101592.88;;;21.71;47.23
17254;BME280;32542;52.832;13.816;2023-02-19T09:35:11;101603.56;;;21.71;47.31
17254;BME280;32542;52.832;13.816;2023-02-19T09:38:14;101600.88;;;21.71;47.35
17254;BME280;32542;52.832;13.816;2023-02-19T09:41:22;101606.22;;;21.71;47.35
17254;BME280;32542;52.832;13.816;2023-02-19T09:44:29;101607.94;;;21.72;47.26
17254;BME280;32542;52.832;13.816;2023-02-19T09:47:33;101618.75;;;21.69;43.66
17254;BME280;32542;52.832;13.816;2023-02-19T09:50:41;101624.00;;;21.47;40.07
17254;BME280;32542;52.832;13.816;2023-02-19T09:53:48;101627.41;;;21.03;37.79
17254;BME280;32542;52.832;13.816;2023-02-19T09:56:54;101635.63;;;20.43;35.88
17254;BME280;32542;52.832;13.816;2023-02-19T10:00:03;101630.91;;;20.25;37.84
17254;BME280;32542;52.832;13.816;2023-02-19T10:03:20;101631.94;;;20.47;38.40
17254;BME280;32542;52.832;13.816;2023-02-19T10:06:26;101633.19;;;20.63;38.46
17254;BME280;32542;52.832;13.816;2023-02-19T10:09:30;101637.94;;;20.80;38.85
17254;BME280;32542;52.832;13.816;2023-02-19T10:12:33;101640.03;;;20.96;39.35
17254;BME280;32542;52.832;13.816;2023-02-19T10:15:41;101653.59;;;21.15;39.75
17254;BME280;32542;52.832;13.816;2023-02-19T10:18:46;101665.47;;;21.31;40.05
17254;BME280;32542;52.832;13.816;2023-02-19T10:21:50;101664.06;;;21.44;40.31
17254;BME280;32542;52.832;13.816;2023-02-19T10:24:54;101665.31;;;21.59;40.58
17254;BME280;32542;52.832;13.816;2023-02-19T10:27:58;101677.25;;;21.72;40.74
17254;BME280;32542;52.832;13.816;2023-02-19T10:31:06;101675.13;;;21.82;40.81
17254;BME280;32542;52.832;13.816;2023-02-19T10:34:17;101691.63;;;21.93;40.97
17254;BME280;32542;52.832;13.816;2023-02-19T10:37:21;101690.53;;;21.98;41.12
17254;BME280;32542;52.832;13.816;2023-02-19T10:40:26;101700.16;;;22.02;41.42
17254;BME280;32542;52.832;13.816;2023-02-19T10:43:31;101700.06;;;22.04;41.51
17254;BME280;32542;52.832;13.816;2023-02-19T10:46:42;101702.72;;;22.05;41.87
17254;BME280;32542;52.832;13.816;2023-02-19T10:49:46;101709.75;;;22.06;42.42
17254;BME280;32542;52.832;13.816;2023-02-19T10:52:51;101718.56;;;22.08;42.97
17254;BME280;32542;52.832;13.816;2023-02-19T10:56:06;101724.72;;;22.10;43.41
17254;BME280;32542;52.832;13.816;2023-02-19T10:59:22;101723.81;;;22.11;43.90
17254;BME280;32542;52.832;13.816;2023-02-19T11:02:28;101723.81;;;22.11;44.17
17254;BME280;32542;52.832;13.816;2023-02-19T11:05:32;101743.41;;;22.10;44.33
17254;BME280;32542;52.832;13.816;2023-02-19T11:08:45;101730.19;;;22.07;44.58
17254;BME280;32542;52.832;13.816;2023-02-19T11:11:50;101742.72;;;22.05;44.63
17254;BME280;32542;52.832;13.816;2023-02-19T11:14:54;101743.69;;;22.03;45.04
17254;BME280;32542;52.832;13.816;2023-02-19T11:18:20;101739.34;;;22.00;45.57
17254;BME280;32542;52.832;13.816;2023-02-19T11:21:25;101748.31;;;21.98;46.00
17254;BME280;32542;52.832;13.816;2023-02-19T11:24:34;101767.94;;;21.97;46.03
17254;BME280;32542;52.832;13.816;2023-02-19T11:27:52;101764.47;;;21.95;46.02
17254;BME280;32542;52.832;13.816;2023-02-19T11:31:12;101763.56;;;21.94;46.12
17254;BME280;32542;52.832;13.816;2023-02-19T11:34:28;101777.88;;;21.92;nan
17254;BME280;32542;52.832;13.816;2023-02-19T11:37:31;101776.16;;;21.91;46.62
17254;BME280;32542;52.832;13.816;2023-02-19T11:40:39;101774.47;;;21.88;46.96
17254;BME280;32542;52.832;13.816;2023-02-19T11:43:53;101778.00;;;21.89;47.17
17254;BME280;32542;52.832;13.816;2023-02-19T11:47:26;101775.38;;;21.87;47.43
17254;BME280;32542;52.832;13.816;2023-02-19T11:50:45;101785.19;;;21.87;47.64
17254;BME280;32542;52.832;13.816;2023-02-19T11:54:01;101784.34;;;21.85;47.78
17254;BME280;32542;52.832;13.816;2023-02-19T11:57:10;101795.03;;;21.85;47.64
17254;BME280;32542;52.832;13.816;2023-02-19T12:00:23;101783.53;;;21.83;48.01
17254;BME280;32542;52.832;13.816;2023-02-19T12:03:42;101790.69;;;21.82;48.06
17254;BME280;32542;52.832;13.816;2023-02-19T12:06:59;101797.78;;;21.82;48.50
17254;BME280;32542;52.832;13.816;2023-02-19T12:10:11;101787.16;;;21.80;48.82
17254;BME280;32542;52.832;13.816;2023-02-19T12:13:26;101785.38;;;21.81;48.82
17254;BME280;32542;52.832;13.816;2023-02-19T12:16:38;101782.75;;;21.79;49.18
17254;BME280;32542;52.832;13.816;2023-02-19T12:19:57;101781.81;;;21.80;49.09
17254;BME280;32542;52.832;13.816;2023-02-19T12:23:27;101808.47;;;21.80;49.12
17254;BME280;32542;52.832;13.816;2023-02-19T12:26:35;101797.81;;;21.80;49.15
17254;BME280;32542;52.832;13.816;2023-02-19T12:29:53;101788.91;;;21.81;49.09
17254;BME280;32542;52.832;13.816;2023-02-19T12:33:10;101799.56;;;21.81;48.98
17254;BME280;32542;52.832;13.816;2023-02-19T12:36:24;101802.25;;;21.81;48.95
17254;BME280;32542;52.832;13.816;2023-02-19T12:39:36;101804.03;;;21.81;49.01
17254;BME280;32542;52.832;13.816;2023-02-19T12:42:53;101809.38;;;21.81;49.16
17254;BME280;32542;52.832;13.816;2023-02-19T12:46:02;101813.81;;;21.80;49.32
17254;BME280;32542;52.832;13.816;2023-02-19T12:49:09;101815.56;;;21.81;49.38
17254;BME280;32542;52.832;13.816;2023-02-19T12:52:17;101808.47;;;21.80;49.57
17254;BME280;32542;52.832;13.816;2023-02-19T12:55:25;101814.69;;;21.81;49.65
17254;BME280;32542;52.832;13.816;2023-02-19T12:58:34;101817.38;;;21.81;49.61
17254;BME280;32542;52.832;13.816;2023-02-19T13:01:44;101818.31;;;21.80;49.60
17254;BME280;32542;52.832;13.816;2023-02-19T13:04:56;101825.38;;;21.81;49.60
17254;BME280;32542;52.832;13.816;2023-02-19T13:08:04;101837.78;;;21.82;49.62
17254;BME280;32542;52.832;13.816;2023-02-19T13:11:15;101847.53;;;21.83;49.52
17254;BME280;32542;52.832;13.816;2023-02-19T13:14:24;101851.97;;;21.84;49.45
17254;BME280;32542;52.832;13.816;2023-02-19T13:17:35;101846.63;;;21.84;49.58
17254;BME280;32542;52.832;13.816;2023-02-19T13:20:41;101837.75;;;21.83;49.70
17254;BME280;32542;52.832;13.816;2023-02-19T13:23:45;101846.69;;;21.82;49.75
17254;BME280;32542;52.832;13.816;2023-02-19T13:27:09;101859.09;;;21.83;49.80
17254;BME280;32542;52.832;13.816;2023-02-19T13:30:31;101863.50;;;21.84;49.93
17254;BME280;32542;52.832;13.816;2023-02-19T13:33:43;101857.38;;;21.82;50.01
17254;BME280;32542;52.832;13.816;2023-02-19T13:36:49;101857.38;;;21.82;50.00
17254;BME280;32542;52.832;13.816;2023-02-19T13:39:52;101873.38;;;21.82;50.01
17254;BME280;32542;52.832;13.816;2023-02-19T13:42:59;101868.03;;;21.82;50.06
17254;BME280;32542;52.832;13.816;2023-02-19T13:46:05;101871.53;;;21.83;50.11
17254;BME280;32542;52.832;13.816;2023-02-19T13:49:38;101865.38;;;21.82;50.12
17254;BME280;32542;52.832;13.816;2023-02-19T13:52:42;101871.53;;;21.83;49.90
17254;BME280;32542;52.832;13.816;2023-02-19T13:55:50;101870.69;;;21.82;49.93
17254;BME280;32542;52.832;13.816;2023-02-19T13:58:56;101883.97;;;21.84;50.04
17254;BME280;32542;52.832;13.816;2023-02-19T14:09:02;101902.69;;;21.82;49.86
17254;BME280;32542;52.832;13.816;2023-02-19T14:12:17;101903.53;;;21.83;49.70
17254;BME280;32542;52.832;13.816;2023-02-19T14:15:42;101897.38;;;21.82;49.76
17254;BME280;32542;52.832;13.816;2023-02-19T14:18:45;101897.34;;;21.81;50.10
17254;BME280;32542;52.832;13.816;2023-02-19T14:21:48;101912.47;;;21.80;50.03
17254;BME280;32542;52.832;13.816;2023-02-19T14:24:52;101907.16;;;21.80;49.78
17254;BME280;32542;52.832;13.816;2023-02-19T14:28:00;101914.31;;;21.80;48.94
17254;BME280;32542;52.832;13.816;2023-02-19T14:31:14;101903.66;;;21.78;48.83
17254;BME280;32542;52.832;13.816;2023-02-19T14:34:21;101901.00;;;21.78;49.00
17254;BME280;32542;52.832;13.816;2023-02-19T14:37:26;101899.22;;;21.78;48.98
17254;BME280;32542;52.832;13.816;2023-02-19T14:40:32;101897.41;;;21.79;49.00
17254;BME280;32542;52.832;13.816;2023-02-19T14:43:37;101901.00;;;21.78;48.41
17254;BME280;32542;52.832;13.816;2023-02-19T14:46:47;101912.53;;;21.78;47.93
17254;BME280;32542;52.832;13.816;2023-02-19T14:49:54;101914.38;;;21.76;47.78
17254;BME280;32542;52.832;13.816;2023-02-19T14:53:02;101920.59;;;21.77;48.13
17254;BME280;32542;52.832;13.816;2023-02-19T14:56:17;101915.25;;;21.77;47.93
17254;BME280;32542;52.832;13.816;2023-02-19T14:59:23;101915.25;;;21.77;48.23
17254;BME280;32542;52.832;13.816;2023-02-19T15:02:30;101911.72;;;21.76;48.22
17254;BME280;32542;52.832;13.816;2023-02-19T15:05:34;101908.16;;;21.77;48.22
17254;BME280;32542;52.832;13.816;2023-02-19T15:08:42;101918.75;;;21.79;48.42
17254;BME280;32542;52.832;13.816;2023-02-19T15:11:46;101924.09;;;21.79;48.49
17254;BME280;32542;52.832;13.816;2023-02-19T15:14:52;101928.53;;;21.78;48.68
17254;BME280;32542;52.832;13.816;2023-02-19T15:17:59;101931.16;;;21.80;48.92
17254;BME280;32542;52.832;13.816;2023-02-19T15:21:20;101931.16;;;21.80;48.89
17254;BME280;32542;52.832;13.816;2023-02-19T15:24:24;101930.31;;;21.80;49.12
17254;BME280;32542;52.832;13.816;2023-02-19T15:27:28;101939.16;;;21.80;49.28
17254;BME280;32542;52.832;13.816;2023-02-19T15:30:31;101945.41;;;21.79;49.19
17254;BME280;32542;52.832;13.816;2023-02-19T15:33:36;101955.16;;;21.80;49.21
17254;BME280;32542;52.832;13.816;2023-02-19T15:36:39;101952.47;;;21.80;49.25
17254;BME280;32542;52.832;13.816;2023-02-19T15:39:44;101957.81;;;21.80;49.10
17254;BME280;32542;52.832;13.816;2023-02-19T15:42:48;101948.09;;;21.79;49.23
17254;BME280;32542;52.832;13.816;2023-02-19T15:45:53;101970.31;;;21.78;49.15
17254;BME280;32542;52.832;13.816;2023-02-19T15:49:02;101956.97;;;21.80;49.31
17254;BME280;32542;52.832;13.816;2023-02-19T15:52:09;101966.75;;;21.79;49.28
17254;BME280;32542;52.832;13.816;2023-02-19T15:55:22;101963.19;;;21.78;49.70
17254;BME280;32542;52.832;13.816;2023-02-19T15:58:31;101973.81;;;21.80;50.42
17254;BME280;32542;52.832;13.816;2023-02-19T16:01:37;101976.44;;;21.82;50.70
17254;BME280;32542;52.832;13.816;2023-02-19T16:04:43;101980.03;;;21.82;50.42
17254;BME280;32542;52.832;13.816;2023-02-19T16:08:04;101980.03;;;21.82;50.27
17254;BME280;32542;52.832;13.816;2023-02-19T16:11:27;101989.75;;;21.83;50.08
17254;BME280;32542;52.832;13.816;2023-02-19T16:14:31;101977.38;;;21.82;49.93